Time;durP1;ratioP1;P1;durP2;ratioP2;P2;SDS_P1;SDS_P2;PMS_P1;PMS_P2;Temp;Humidity;BMP_temperature;BMP_pressure;BME280_temperature;BME280_humidity;BME280_pressure;Samples;Min_cycle;Max_cycle;Signal;HPM_P1;HPM_P2
2021/01/06 08:04:06;;;;;;;4.60;4.20;;;;;;;;;;10540935;28;20028;-86
2021/01/06 08:09:36;;;;;;;5.00;4.57;;;;;;;;;;10508285;28;20041;-87
2021/01/06 09:40:11;;;;;;;7.20;3.30;;;;;;;;;;10508814;28;20072;-87
2021/01/06 09:45:19;;;;;;;3.80;3.00;;;;;;;;;;10493490;28;20028;-86
2021/01/06 09:50:38;;;;;;;6.55;5.95;;;;;;;;;;10512336;28;20033;-86
2021/01/06 09:55:41;;;;;;;7.55;6.85;;;;;;;;;;10512422;28;20041;-87
2021/01/06 10:01:05;;;;;;;6.90;6.30;;;;;;;;;;10491393;28;20111;-86
2021/01/06 10:06:25;;;;;;;4.38;3.78;;;;;;;;;;10507411;28;20048;-85
2021/01/06 10:11:46;;;;;;;6.97;6.00;;;;;;;;;;10518974;28;20020;-85
2021/01/06 10:16:55;;;;;;;5.83;3.77;;;;;;;;;;10507036;28;20493;-85
2021/01/06 10:22:21;;;;;;;4.00;3.63;;;;;;;;;;10490382;28;20470;-86
2021/01/06 10:27:29;;;;;;;5.07;3.70;;;;;;;;;;10479058;28;20028;-86
2021/01/06 10:32:47;;;;;;;4.43;4.03;;;;;;;;;;10488448;28;20459;-86
2021/01/06 10:37:55;;;;;;;4.28;3.42;;;;;;;;;;10490747;28;20035;-86
2021/01/06 10:43:34;;;;;;;5.22;4.72;;;;;;;;;;10504593;28;20032;-86
2021/01/06 10:48:58;;;;;;;5.70;4.10;;;;;;;;;;10505446;28;20029;-86
2021/01/06 10:54:09;;;;;;;3.80;3.30;;;;;;;;;;10488688;28;20021;-86
2021/01/06 10:59:49;;;;;;;5.37;4.83;;;;;;;;;;10505060;28;20147;-85
2021/01/06 11:05:28;;;;;;;5.90;5.40;;;;;;;;;;10486908;28;20049;-86
2021/01/06 11:10:48;;;;;;;6.22;3.42;;;;;;;;;;10459665;28;20068;-86
2021/01/06 11:16:09;;;;;;;5.75;4.20;;;;;;;;;;10491098;28;20032;-85
2021/01/06 11:21:16;;;;;;;5.57;3.70;;;;;;;;;;10477068;28;20040;-86
2021/01/06 11:26:42;;;;;;;8.13;6.32;;;;;;;;;;10490659;28;20024;-87
2021/01/06 11:32:06;;;;;;;4.95;4.55;;;;;;;;;;10489217;28;20058;-86
2021/01/06 11:43:38;;;;;;;5.30;3.70;;;;;;;;;;10511152;28;20107;-85
2021/01/06 11:49:26;;;;;;;8.02;7.32;;;;;;;;;;10345736;28;20077;-86
2021/01/06 11:54:36;;;;;;;6.40;5.80;;;;;;;;;;10388157;28;20040;-87
2021/01/06 12:11:04;;;;;;;4.18;3.78;;;;;;;;;;10389745;28;20026;-86
2021/01/06 12:16:37;;;;;;;4.93;4.43;;;;;;;;;;10376168;28;20021;-86
2021/01/06 12:22:08;;;;;;;4.50;4.05;;;;;;;;;;10378229;28;20037;-86
2021/01/06 12:27:34;;;;;;;6.80;6.20;;;;;;;;;;10374357;28;20664;-88
2021/01/06 12:50:16;;;;;;;4.38;3.65;;;;;;;;;;10427422;28;20056;-87
2021/01/06 13:02:06;;;;;;;5.60;4.55;;;;;;;;;;10514223;28;20021;-88
2021/01/06 13:07:33;;;;;;;4.75;4.25;;;;;;;;;;10428932;28;20037;-87
2021/01/06 13:13:23;;;;;;;4.47;4.07;;;;;;;;;;10319526;28;20038;-89
2021/01/06 13:18:48;;;;;;;4.03;3.72;;;;;;;;;;10335004;28;20106;-87
2021/01/06 13:24:15;;;;;;;6.03;5.43;;;;;;;;;;10398835;28;20037;-87
2021/01/06 13:29:30;;;;;;;4.25;3.75;;;;;;;;;;10408448;28;20504;-87
2021/01/06 13:34:57;;;;;;;2.88;2.67;;;;;;;;;;10410979;28;20030;-87
2021/01/06 13:51:51;;;;;;;3.72;3.42;;;;;;;;;;10512757;28;20060;-87
2021/01/06 13:57:01;;;;;;;3.10;2.80;;;;;;;;;;10520004;28;20096;-86
2021/01/06 14:02:25;;;;;;;3.38;3.00;;;;;;;;;;10511289;28;20028;-87
2021/01/06 14:07:31;;;;;;;3.42;2.90;;;;;;;;;;10469440;28;20474;-86
2021/01/06 14:12:41;;;;;;;4.45;3.60;;;;;;;;;;10511927;28;20032;-88
2021/01/06 14:17:42;;;;;;;;;;;;;;;;;;10517500;28;20028;-87
2021/01/06 14:22:43;;;;;;;4.00;3.63;;;;;;;;;;10525617;28;19896;-87
2021/01/06 14:27:44;;;;;;;4.28;3.03;;;;;;;;;;10509679;28;20033;-87
2021/01/06 14:32:48;;;;;;;3.53;3.22;;;;;;;;;;10525605;28;20029;-86
2021/01/06 14:38:01;;;;;;;4.00;3.65;;;;;;;;;;10516432;28;20033;-86
2021/01/06 14:43:11;;;;;;;4.63;3.72;;;;;;;;;;10503477;28;20037;-88
2021/01/06 14:48:12;;;;;;;;;;;;;;;;;;10494979;28;20051;-87
2021/01/06 14:53:15;;;;;;;4.28;2.78;;;;;;;;;;10495505;28;19904;-88
2021/01/06 14:58:34;;;;;;;3.78;3.13;;;;;;;;;;10495485;28;20392;-88
2021/01/06 15:03:44;;;;;;;3.55;3.25;;;;;;;;;;10486368;28;20048;-89
2021/01/06 15:09:00;;;;;;;4.50;2.85;;;;;;;;;;10486967;28;20095;-88
2021/01/06 15:14:10;;;;;;;4.78;3.55;;;;;;;;;;10487097;28;20030;-88
2021/01/06 15:19:16;;;;;;;4.43;4.00;;;;;;;;;;10491289;28;20188;-89
2021/01/06 15:24:21;;;;;;;4.40;4.05;;;;;;;;;;10494147;28;20682;-89
2021/01/06 15:29:39;;;;;;;6.35;5.75;;;;;;;;;;10512407;28;20024;-89
2021/01/06 15:34:44;;;;;;;3.63;3.33;;;;;;;;;;10507422;28;20028;-88
2021/01/06 15:39:46;;;;;;;6.65;6.05;;;;;;;;;;10516335;28;20128;-88
2021/01/06 15:44:52;;;;;;;3.55;3.00;;;;;;;;;;10514669;28;20028;-87
2021/01/06 15:49:57;;;;;;;4.05;3.65;;;;;;;;;;10515017;28;20044;-86
2021/01/06 15:55:01;;;;;;;3.75;3.45;;;;;;;;;;10513948;28;20108;-88
2021/01/06 16:00:08;;;;;;;6.82;5.60;;;;;;;;;;10508992;28;20040;-86
2021/01/06 16:05:21;;;;;;;3.75;3.45;;;;;;;;;;10496890;28;20052;-87
2021/01/06 16:10:22;;;;;;;4.72;4.22;;;;;;;;;;10496246;28;20029;-87
2021/01/06 16:15:28;;;;;;;4.18;3.78;;;;;;;;;;10516187;28;20025;-87
2021/01/06 16:20:40;;;;;;;4.57;3.85;;;;;;;;;;10509622;28;20051;-88
2021/01/06 16:25:47;;;;;;;4.55;3.67;;;;;;;;;;10502356;28;20054;-86
2021/01/06 16:30:55;;;;;;;4.40;4.00;;;;;;;;;;10494383;28;20036;-86
2021/01/06 16:36:01;;;;;;;4.38;2.92;;;;;;;;;;10497023;28;20036;-87
2021/01/06 16:41:04;;;;;;;3.55;2.88;;;;;;;;;;10523305;28;20084;-88
2021/01/06 16:46:07;;;;;;;4.85;4.30;;;;;;;;;;10539041;28;20024;-87
2021/01/06 16:51:11;;;;;;;4.20;2.97;;;;;;;;;;10490146;28;20028;-87
2021/01/06 16:56:23;;;;;;;4.28;3.80;;;;;;;;;;10491916;28;20029;-88
2021/01/06 17:01:24;;;;;;;4.25;3.85;;;;;;;;;;10492255;28;20122;-88
2021/01/06 17:06:36;;;;;;;4.03;3.13;;;;;;;;;;10491850;28;20067;-87
2021/01/06 17:11:39;;;;;;;3.38;2.50;;;;;;;;;;10491134;28;20036;-87
2021/01/06 17:16:49;;;;;;;3.17;2.45;;;;;;;;;;10491695;28;20101;-88
2021/01/06 17:21:52;;;;;;;3.97;3.42;;;;;;;;;;10491165;28;20427;-87
2021/01/06 17:26:57;;;;;;;3.97;3.38;;;;;;;;;;10492470;28;20590;-87
2021/01/06 17:32:15;;;;;;;2.95;1.80;;;;;;;;;;10488606;28;20039;-87
2021/01/06 17:37:38;;;;;;;2.88;2.47;;;;;;;;;;10489303;28;20123;-90
2021/01/06 17:48:28;;;;;;;2.78;2.20;;;;;;;;;;10505579;28;20037;-90
2021/01/06 17:53:50;;;;;;;2.83;2.47;;;;;;;;;;10487718;28;20063;-89
2021/01/06 17:58:52;;;;;;;3.50;3.08;;;;;;;;;;10487550;28;20483;-91
2021/01/06 18:04:08;;;;;;;3.85;2.70;;;;;;;;;;10491773;28;20020;-91
2021/01/06 18:09:38;;;;;;;2.65;2.33;;;;;;;;;;10487644;28;20033;-90
2021/01/06 18:14:40;;;;;;;3.38;2.60;;;;;;;;;;10458516;28;20036;-90
2021/01/06 18:19:59;;;;;;;2.85;2.55;;;;;;;;;;10487668;28;20044;-90
2021/01/06 18:25:02;;;;;;;2.70;2.23;;;;;;;;;;10489456;28;20028;-89
2021/01/06 18:30:12;;;;;;;3.75;3.22;;;;;;;;;;10487751;28;20410;-90
2021/01/06 18:35:23;;;;;;;3.45;3.08;;;;;;;;;;10488729;28;20199;-90
2021/01/06 18:40:51;;;;;;;4.05;3.65;;;;;;;;;;10489512;28;20020;-91
2021/01/06 18:45:59;;;;;;;4.63;4.10;;;;;;;;;;10490220;28;20031;-89
2021/01/06 18:51:03;;;;;;;3.97;3.50;;;;;;;;;;10472030;28;20056;-89
2021/01/06 18:56:10;;;;;;;3.70;2.47;;;;;;;;;;10486613;28;20390;-90
2021/01/06 19:01:18;;;;;;;3.40;3.10;;;;;;;;;;10486309;28;20440;-90
2021/01/06 19:06:51;;;;;;;4.30;3.90;;;;;;;;;;10486924;28;20036;-90
2021/01/06 19:12:12;;;;;;;4.03;3.63;;;;;;;;;;10487562;28;20040;-90
2021/01/06 19:17:22;;;;;;;3.33;2.55;;;;;;;;;;10486165;28;20117;-89
2021/01/06 19:22:27;;;;;;;6.00;4.45;;;;;;;;;;10487531;28;20340;-90
2021/01/06 19:27:28;;;;;;;4.53;3.45;;;;;;;;;;10485147;28;20029;-90
2021/01/06 19:32:32;;;;;;;3.30;3.00;;;;;;;;;;10486801;28;20039;-90
2021/01/06 19:37:36;;;;;;;2.60;2.30;;;;;;;;;;10486721;28;20083;-90
2021/01/06 19:42:40;;;;;;;4.13;3.78;;;;;;;;;;10486196;28;20107;-89
2021/01/06 19:47:50;;;;;;;4.07;3.17;;;;;;;;;;10486004;28;20055;-90
2021/01/06 19:53:17;;;;;;;2.95;2.65;;;;;;;;;;10486135;28;20033;-89
2021/01/06 19:58:24;;;;;;;4.65;4.13;;;;;;;;;;10486710;28;20557;-90
2021/01/06 20:03:26;;;;;;;2.72;2.50;;;;;;;;;;10491835;28;20025;-90
2021/01/06 20:08:50;;;;;;;4.30;3.90;;;;;;;;;;10498202;28;20342;-89
2021/01/06 20:13:56;;;;;;;3.80;3.22;;;;;;;;;;10480819;28;20033;-90
2021/01/06 20:19:05;;;;;;;4.35;3.95;;;;;;;;;;10492611;28;20497;-90
2021/01/06 20:24:09;;;;;;;4.57;4.13;;;;;;;;;;10492137;28;20032;-91
2021/01/06 20:29:16;;;;;;;3.17;2.88;;;;;;;;;;10493241;28;20040;-91
2021/01/06 20:34:26;;;;;;;3.38;3.03;;;;;;;;;;10504729;28;20029;-89
2021/01/06 20:39:29;;;;;;;4.68;4.28;;;;;;;;;;10532267;28;20060;-89
2021/01/06 20:44:41;;;;;;;5.30;4.78;;;;;;;;;;10521535;28;20029;-90
2021/01/06 20:49:51;;;;;;;4.00;3.60;;;;;;;;;;10492063;28;20055;-89
2021/01/06 20:54:58;;;;;;;5.05;4.63;;;;;;;;;;10492047;28;20041;-89
2021/01/06 21:05:48;;;;;;;4.95;4.38;;;;;;;;;;10478735;28;20175;-90
2021/01/06 21:10:54;;;;;;;3.60;3.30;;;;;;;;;;10489818;28;20037;-90
2021/01/06 21:16:23;;;;;;;5.68;4.97;;;;;;;;;;10491111;28;20021;-90
2021/01/06 21:21:40;;;;;;;;;;;;;;;;;;;;;
